Time;durP1;ratioP1;P1;durP2;ratioP2;P2;SDS_P1;SDS_P2;PMS_P1;PMS_P2;Temp;Humidity;BMP_temperature;BMP_pressure;BME280_temperature;BME280_humidity;BME280_pressure;Samples;Min_cycle;Max_cycle;Signal;HPM_P1;HPM_P2
2023/06/02 00:00:21;;;;;;;;;;;;;;;22.30;55.72;99470.44;5091060;28;20011;-42
2023/06/02 00:02:51;;;;;;;;;;;;;;;22.35;55.48;99473.09;5091399;28;19919;-40
2023/06/02 00:05:16;;;;;;;;;;;;;;;22.40;54.77;99475.75;5091575;28;19916;-41
2023/06/02 00:07:41;;;;;;;;;;;;;;;22.29;55.02;99468.03;5090982;28;19912;-41
2023/06/02 00:10:07;;;;;;;;;;;;;;;22.33;55.12;99472.59;5091284;28;19911;-41
2023/06/02 00:12:32;;;;;;;;;;;;;;;22.31;55.35;99468.53;5091190;28;19912;-41
2023/06/02 00:14:57;;;;;;;;;;;;;;;22.26;55.56;99469.41;5091159;28;19958;-42
2023/06/02 00:17:22;;;;;;;;;;;;;;;22.23;55.67;99459.09;5090871;28;19934;-41
2023/06/02 00:19:48;;;;;;;;;;;;;;;22.20;55.61;99465.91;5090404;28;19916;-41
2023/06/02 00:22:14;;;;;;;;;;;;;;;22.18;55.67;99465.41;5090874;28;20004;-41
2023/06/02 00:24:42;;;;;;;;;;;;;;;22.24;55.35;99449.91;5090898;28;19912;-42
2023/06/02 00:27:09;;;;;;;;;;;;;;;22.17;55.82;99458.34;5091272;28;19930;-41
2023/06/02 00:29:34;;;;;;;;;;;;;;;22.12;56.17;99460.31;5090617;28;20411;-43
2023/06/02 00:32:00;;;;;;;;;;;;;;;21.96;56.37;99456.94;5091008;28;20015;-41
2023/06/02 00:34:25;;;;;;;;;;;;;;;21.84;56.63;99446.50;5090892;28;19955;-42
2023/06/02 00:36:50;;;;;;;;;;;;;;;21.81;56.93;99442.44;5094382;28;19915;-41
2023/06/02 00:39:15;;;;;;;;;;;;;;;21.90;56.77;99450.78;5094502;28;20398;-42
2023/06/02 00:41:41;;;;;;;;;;;;;;;21.97;56.86;99450.41;5094073;28;19912;-41
2023/06/02 00:44:06;;;;;;;;;;;;;;;21.80;57.31;99453.56;5094483;28;19916;-41
2023/06/02 00:46:31;;;;;;;;;;;;;;;21.66;57.94;99450.72;5094458;28;19912;-42
2023/06/02 00:48:56;;;;;;;;;;;;;;;21.69;57.57;99447.44;5094330;28;19916;-41
2023/06/02 00:51:22;;;;;;;;;;;;;;;21.65;58.05;99449.09;5094225;28;19912;-42
2023/06/02 00:53:47;;;;;;;;;;;;;;;21.58;58.43;99448.63;5094205;28;20306;-42
2023/06/02 00:56:13;;;;;;;;;;;;;;;21.44;59.16;99453.88;5094132;28;19912;-41
2023/06/02 00:58:39;;;;;;;;;;;;;;;21.20;59.85;99459.16;5093455;28;20303;-42
2023/06/02 01:01:08;;;;;;;;;;;;;;;21.03;59.96;99462.22;5093966;28;19917;-41
2023/06/02 01:03:34;;;;;;;;;;;;;;;21.06;59.80;99464.38;5094336;28;19918;-41
2023/06/02 01:06:02;;;;;;;;;;;;;;;21.03;59.99;99459.53;5094353;28;19939;-41
2023/06/02 01:08:29;;;;;;;;;;;;;;;21.10;59.77;99457.31;5094053;28;20003;-41
2023/06/02 01:10:55;;;;;;;;;;;;;;;21.09;60.02;99455.69;5094017;28;19943;-41
2023/06/02 01:13:21;;;;;;;;;;;;;;;21.07;60.09;99455.16;5093948;28;19951;-41
2023/06/02 01:15:46;;;;;;;;;;;;;;;21.08;60.08;99454.09;5093851;28;19916;-41
2023/06/02 01:18:14;;;;;;;;;;;;;;;21.20;59.43;99451.03;5093785;28;19958;-41
2023/06/02 01:20:44;;;;;;;;;;;;;;;21.23;59.36;99454.00;5093827;28;19920;-41
2023/06/02 01:23:17;;;;;;;;;;;;;;;21.16;59.23;99450.78;5093739;28;19912;-41
2023/06/02 01:25:42;;;;;;;;;;;;;;;21.02;59.79;99437.09;5093440;28;19912;-41
2023/06/02 01:28:08;;;;;;;;;;;;;;;20.98;59.64;99446.84;5093554;28;20308;-41
2023/06/02 01:30:33;;;;;;;;;;;;;;;21.11;59.75;99444.59;5093649;28;20390;-41
2023/06/02 01:33:01;;;;;;;;;;;;;;;21.20;59.36;99451.03;5093639;28;20419;-41
2023/06/02 01:35:30;;;;;;;;;;;;;;;21.34;58.65;99453.91;5093369;28;19916;-41
2023/06/02 01:37:56;;;;;;;;;;;;;;;21.29;59.01;99442.03;5094026;28;20045;-42
2023/06/02 01:40:24;;;;;;;;;;;;;;;20.97;59.75;99458.75;5093295;28;19955;-41
2023/06/02 01:42:50;;;;;;;;;;;;;;;20.91;59.92;99453.66;5093499;28;19935;-41
2023/06/02 01:45:16;;;;;;;;;;;;;;;20.79;59.87;99453.97;5092987;28;19920;-41
2023/06/02 01:47:41;;;;;;;;;;;;;;;20.70;60.24;99454.56;5092953;28;19919;-42
2023/06/02 01:50:06;;;;;;;;;;;;;;;20.51;60.65;99457.03;5093117;28;19981;-42
2023/06/02 01:52:32;;;;;;;;;;;;;;;20.21;61.41;99449.81;5093190;28;19912;-41
2023/06/02 01:54:57;;;;;;;;;;;;;;;20.09;61.73;99452.03;5093116;28;19943;-41
2023/06/02 01:57:22;;;;;;;;;;;;;;;20.23;61.41;99446.84;5092921;28;19934;-41
2023/06/02 01:59:48;;;;;;;;;;;;;;;20.44;60.70;99448.41;5092812;28;19955;-41
2023/06/02 02:02:13;;;;;;;;;;;;;;;20.50;60.00;99447.31;5093200;28;20280;-41
2023/06/02 02:04:40;;;;;;;;;;;;;;;20.47;60.33;99450.56;5092897;28;19928;-41
2023/06/02 02:07:08;;;;;;;;;;;;;;;20.50;59.84;99446.47;5092810;28;19912;-41
2023/06/02 02:09:33;;;;;;;;;;;;;;;20.64;59.16;99444.06;5092840;28;19940;-42
2023/06/02 02:11:59;;;;;;;;;;;;;;;20.64;59.86;99446.75;5092821;28;20017;-43
2023/06/02 02:14:24;;;;;;;;;;;;;;;20.68;59.58;99448.59;5092550;28;19916;-42
2023/06/02 02:16:51;;;;;;;;;;;;;;;20.69;59.90;99450.25;5092371;28;19912;-42
2023/06/02 02:19:16;;;;;;;;;;;;;;;20.75;59.28;99456.41;5092444;28;20296;-42
2023/06/02 02:21:42;;;;;;;;;;;;;;;20.75;58.87;99447.50;5092497;28;19912;-41
2023/06/02 02:24:08;;;;;;;;;;;;;;;20.72;58.71;99446.16;5092679;28;19919;-42
2023/06/02 02:26:33;;;;;;;;;;;;;;;20.63;59.45;99448.63;5092784;28;20300;-42
2023/06/02 02:28:58;;;;;;;;;;;;;;;20.53;59.73;99442.44;5099657;28;20408;-42
2023/06/02 02:31:24;;;;;;;;;;;;;;;20.23;60.66;99446.84;5112770;28;20420;-42
2023/06/02 02:33:50;;;;;;;;;;;;;;;19.96;61.43;99448.00;5108474;28;19916;-42
2023/06/02 02:36:16;;;;;;;;;;;;;;;19.96;61.59;99449.88;5091259;28;19912;-41
2023/06/02 02:38:41;;;;;;;;;;;;;;;19.88;62.11;99453.94;5090340;28;19919;-41
2023/06/02 02:41:07;;;;;;;;;;;;;;;19.87;61.83;99450.41;5089217;28;19920;-42
2023/06/02 02:43:32;;;;;;;;;;;;;;;20.04;61.38;99438.53;5092213;28;20263;-41
2023/06/02 02:45:57;;;;;;;;;;;;;;;20.10;61.71;99438.25;5092242;28;19955;-41
2023/06/02 02:48:22;;;;;;;;;;;;;;;20.02;62.12;99435.28;5092260;28;20345;-43
2023/06/02 02:50:48;;;;;;;;;;;;;;;20.02;61.89;99438.78;5091981;28;19969;-43
2023/06/02 02:53:15;;;;;;;;;;;;;;;20.09;61.39;99439.31;5091960;28;20383;-42
2023/06/02 02:55:41;;;;;;;;;;;;;;;20.02;61.88;99443.38;5088939;28;19954;-42
2023/06/02 02:58:08;;;;;;;;;;;;;;;20.12;61.91;99440.66;5089720;28;19943;-43
2023/06/02 03:00:33;;;;;;;;;;;;;;;20.24;61.52;99433.06;5091889;28;20034;-42
2023/06/02 03:03:01;;;;;;;;;;;;;;;20.37;61.24;99437.09;5091814;28;19912;-42
2023/06/02 03:05:26;;;;;;;;;;;;;;;20.28;61.25;99436.84;5092135;28;20283;-42
2023/06/02 03:07:51;;;;;;;;;;;;;;;20.11;61.92;99433.66;5091480;28;20018;-42
2023/06/02 03:10:17;;;;;;;;;;;;;;;20.15;62.08;99434.72;5088618;28;19920;-42
2023/06/02 03:12:42;;;;;;;;;;;;;;;20.26;61.89;99439.00;5091482;28;19919;-41
2023/06/02 03:15:07;;;;;;;;;;;;;;;20.18;62.33;99433.34;5091745;28;20249;-36
2023/06/02 03:17:33;;;;;;;;;;;;;;;20.19;61.52;99437.69;5089588;28;19916;-36
2023/06/02 03:19:58;;;;;;;;;;;;;;;20.18;61.67;99441.44;5090686;28;19917;-37
2023/06/02 03:22:23;;;;;;;;;;;;;;;20.16;61.97;99447.13;5090646;28;19919;-35
2023/06/02 03:24:50;;;;;;;;;;;;;;;20.29;62.08;99454.66;5090612;28;19987;-35
2023/06/02 03:27:16;;;;;;;;;;;;;;;20.26;61.96;99451.72;5091489;28;19913;-34
2023/06/02 03:29:44;;;;;;;;;;;;;;;20.30;62.02;99447.38;5090202;28;19926;-35
2023/06/02 03:32:10;;;;;;;;;;;;;;;20.29;61.92;99443.03;5090645;28;19916;-35
2023/06/02 03:34:36;;;;;;;;;;;;;;;20.33;61.85;99449.50;5090329;28;19913;-35
2023/06/02 03:37:02;;;;;;;;;;;;;;;20.51;61.61;99450.81;5090200;28;19912;-36
2023/06/02 03:39:27;;;;;;;;;;;;;;;20.73;61.15;99455.88;5090196;28;19912;-36
2023/06/02 03:41:53;;;;;;;;;;;;;;;20.54;61.86;99452.94;5090080;28;19918;-36
2023/06/02 03:44:18;;;;;;;;;;;;;;;20.82;61.59;99454.22;5090222;28;19913;-36
2023/06/02 03:46:43;;;;;;;;;;;;;;;21.33;59.96;99447.69;5090405;28;19986;-36
2023/06/02 03:49:08;;;;;;;;;;;;;;;21.38;58.22;99439.53;5090330;28;20413;-36
2023/06/02 03:51:34;;;;;;;;;;;;;;;21.71;59.46;99447.97;5090885;28;19912;-36
2023/06/02 03:53:59;;;;;;;;;;;;;;;22.11;55.99;99451.38;5091042;28;19950;-36
2023/06/02 03:56:25;;;;;;;;;;;;;;;22.58;54.50;99446.25;5091038;28;19912;-36
2023/06/02 03:58:50;;;;;;;;;;;;;;;22.91;53.12;99439.06;5090805;28;19912;-35
2023/06/02 04:01:16;;;;;;;;;;;;;;;23.20;52.32;99448.97;5091284;28;19916;-35
2023/06/02 04:03:41;;;;;;;;;;;;;;;23.44;51.55;99448.88;5091163;28;20367;-35
2023/06/02 04:06:07;;;;;;;;;;;;;;;23.67;50.64;99452.59;5091050;28;19915;-36
2023/06/02 04:08:33;;;;;;;;;;;;;;;24.07;50.19;99436.69;5091191;28;19927;-35
2023/06/02 04:10:58;;;;;;;;;;;;;;;24.48;49.74;99449.47;5094700;28;19965;-35
2023/06/02 04:13:24;;;;;;;;;;;;;;;24.93;47.90;99454.28;5095218;28;19912;-35
2023/06/02 04:15:49;;;;;;;;;;;;;;;25.21;47.13;99452.31;5095059;28;19922;-35
2023/06/02 04:18:14;;;;;;;;;;;;;;;25.45;46.61;99445.78;5094853;28;19916;-36
2023/06/02 04:20:40;;;;;;;;;;;;;;;25.80;45.49;99441.34;5094792;28;19938;-36
2023/06/02 04:23:05;;;;;;;;;;;;;;;26.02;45.02;99437.00;5094998;28;19947;-36
2023/06/02 04:25:30;;;;;;;;;;;;;;;25.91;43.99;99441.88;5094554;28;20397;-36
2023/06/02 04:27:56;;;;;;;;;;;;;;;25.52;44.99;99446.16;5094392;28;19940;-36
2023/06/02 04:30:21;;;;;;;;;;;;;;;25.97;44.24;99437.13;5094288;28;20445;-36
2023/06/02 04:32:46;;;;;;;;;;;;;;;26.30;43.28;99448.50;5094313;28;19916;-36
2023/06/02 04:35:12;;;;;;;;;;;;;;;26.71;42.65;99452.81;5094046;28;20368;-37
2023/06/02 04:37:37;;;;;;;;;;;;;;;27.21;41.69;99451.59;5094145;28;19912;-37
2023/06/02 04:40:06;;;;;;;;;;;;;;;27.57;42.30;99454.00;5093929;28;20410;-36
2023/06/02 04:42:32;;;;;;;;;;;;;;;27.87;39.79;99449.44;5093380;28;19995;-37
2023/06/02 04:45:00;;;;;;;;;;;;;;;28.28;39.04;99455.41;5093625;28;19916;-36
2023/06/02 04:47:26;;;;;;;;;;;;;;;28.51;38.35;99450.47;5093452;28;20033;-36
2023/06/02 04:49:51;;;;;;;;;;;;;;;28.96;37.42;99457.28;5093495;28;19912;-37
2023/06/02 04:52:17;;;;;;;;;;;;;;;29.37;37.62;99452.97;5093285;28;19911;-36
2023/06/02 04:54:43;;;;;;;;;;;;;;;29.90;35.92;99456.81;5093333;28;19946;-36
2023/06/02 04:57:08;;;;;;;;;;;;;;;30.21;35.25;99452.72;5093474;28;19919;-37
2023/06/02 04:59:33;;;;;;;;;;;;;;;30.27;34.99;99459.56;5092297;28;19912;-36
2023/06/02 05:01:59;;;;;;;;;;;;;;;30.35;34.27;99461.47;5092493;28;19916;-37
2023/06/02 05:04:25;;;;;;;;;;;;;;;30.52;33.88;99460.41;5093333;28;20372;-37
2023/06/02 05:06:51;;;;;;;;;;;;;;;30.19;33.84;99460.50;5093381;28;19919;-37
2023/06/02 05:09:16;;;;;;;;;;;;;;;30.10;33.33;99457.06;5093184;28;19968;-37
2023/06/02 05:11:42;;;;;;;;;;;;;;;30.47;33.62;99465.34;5093453;28;20368;-38
2023/06/02 05:14:07;;;;;;;;;;;;;;;30.73;33.14;99471.28;5093226;28;19965;-37
2023/06/02 05:16:32;;;;;;;;;;;;;;;31.04;32.38;99469.06;5093131;28;20202;-38
2023/06/02 05:18:58;;;;;;;;;;;;;;;31.26;32.31;99476.75;5093222;28;19962;-38
2023/06/02 05:21:23;;;;;;;;;;;;;;;31.36;31.94;99468.03;5092804;28;19959;-36
2023/06/02 05:23:48;;;;;;;;;;;;;;;31.26;31.84;99473.22;5093028;28;19916;-37
2023/06/02 05:26:15;;;;;;;;;;;;;;;31.61;31.88;99473.47;5093101;28;19912;-36
2023/06/02 05:28:40;;;;;;;;;;;;;;;31.51;32.17;99476.69;5092716;28;19935;-37
2023/06/02 05:31:05;;;;;;;;;;;;;;;31.78;31.87;99475.09;5092589;28;19932;-36
2023/06/02 05:33:31;;;;;;;;;;;;;;;32.04;31.38;99484.81;5092911;28;19919;-37
2023/06/02 05:35:56;;;;;;;;;;;;;;;32.27;31.36;99487.75;5093178;28;19920;-36
2023/06/02 05:38:21;;;;;;;;;;;;;;;32.53;30.69;99474.22;5092775;28;20287;-37
2023/06/02 05:40:46;;;;;;;;;;;;;;;32.83;30.28;99471.00;5091849;28;19995;-36
2023/06/02 05:43:13;;;;;;;;;;;;;;;33.42;29.64;99471.84;5092406;28;20053;-36
2023/06/02 05:45:38;;;;;;;;;;;;;;;33.42;30.07;99471.06;5092832;28;19912;-36
2023/06/02 05:48:03;;;;;;;;;;;;;;;33.92;29.18;99479.50;5092841;28;20268;-37
2023/06/02 05:50:29;;;;;;;;;;;;;;;33.85;28.75;99482.91;5092793;28;19912;-36
2023/06/02 05:52:54;;;;;;;;;;;;;;;34.16;28.24;99489.41;5092792;28;19918;-37
2023/06/02 05:55:20;;;;;;;;;;;;;;;34.45;28.58;99496.19;5092727;28;19912;-37
2023/06/02 05:57:45;;;;;;;;;;;;;;;33.93;27.97;99503.13;5092907;28;19912;-36
2023/06/02 06:00:11;;;;;;;;;;;;;;;34.28;27.72;99501.03;5092823;28;19916;-36
2023/06/02 06:02:36;;;;;;;;;;;;;;;34.20;28.41;99499.31;5092621;28;19985;-37
2023/06/02 06:05:01;;;;;;;;;;;;;;;34.36;28.03;99490.09;5092076;28;19985;-36
2023/06/02 06:07:27;;;;;;;;;;;;;;;34.33;27.79;99499.13;5092224;28;19968;-36
2023/06/02 06:09:52;;;;;;;;;;;;;;;34.07;28.33;99500.66;5092096;28;19950;-37
2023/06/02 06:12:17;;;;;;;;;;;;;;;34.43;28.42;99501.28;5091916;28;19916;-38
2023/06/02 06:14:43;;;;;;;;;;;;;;;34.51;28.21;99496.66;5092268;28;19913;-36
2023/06/02 06:17:08;;;;;;;;;;;;;;;34.28;27.60;99494.72;5091857;28;20032;-36
2023/06/02 06:19:33;;;;;;;;;;;;;;;34.28;28.44;99497.47;5091891;28;19912;-36
2023/06/02 06:21:59;;;;;;;;;;;;;;;34.59;28.32;99499.13;5092056;28;19912;-36
2023/06/02 06:24:24;;;;;;;;;;;;;;;34.20;28.21;99493.81;5091629;28;20577;-36
2023/06/02 06:26:49;;;;;;;;;;;;;;;34.80;27.65;99498.69;5091601;28;20311;-37
2023/06/02 06:29:15;;;;;;;;;;;;;;;35.16;27.28;99488.13;5091036;28;20447;-36
2023/06/02 06:31:40;;;;;;;;;;;;;;;35.28;27.14;99478.81;5091697;28;19924;-35
2023/06/02 06:34:08;;;;;;;;;;;;;;;35.72;26.79;99492.00;5090720;28;19989;-37
2023/06/02 06:36:34;;;;;;;;;;;;;;;35.52;26.82;99485.78;5091714;28;19912;-37
2023/06/02 06:38:59;;;;;;;;;;;;;;;35.17;26.66;99488.94;5091578;28;19923;-37
2023/06/02 06:41:26;;;;;;;;;;;;;;;35.12;26.68;99480.97;5091218;28;19916;-36
2023/06/02 06:43:51;;;;;;;;;;;;;;;35.50;26.48;99481.84;5091427;28;20383;-36
2023/06/02 06:46:16;;;;;;;;;;;;;;;35.77;25.89;99471.47;5091444;28;19927;-36
2023/06/02 06:48:42;;;;;;;;;;;;;;;35.47;26.36;99466.78;5091451;28;19959;-36
2023/06/02 06:51:07;;;;;;;;;;;;;;;35.55;26.37;99465.69;5091295;28;19912;-37
2023/06/02 06:53:32;;;;;;;;;;;;;;;35.61;26.02;99461.41;5091903;28;19961;-36
2023/06/02 06:55:59;;;;;;;;;;;;;;;35.67;26.27;99456.31;5091396;28;19916;-38
2023/06/02 06:58:24;;;;;;;;;;;;;;;36.19;25.95;99453.66;5091419;28;19912;-42
2023/06/02 07:00:50;;;;;;;;;;;;;;;36.23;26.10;99460.03;5091331;28;19922;-42
2023/06/02 07:03:15;;;;;;;;;;;;;;;36.62;25.15;99462.28;5091030;28;19912;-40
2023/06/02 07:05:41;;;;;;;;;;;;;;;36.66;25.61;99459.56;5090744;28;19923;-42
2023/06/02 07:08:06;;;;;;;;;;;;;;;36.38;24.91;99452.63;5090822;28;19912;-42
2023/06/02 07:10:32;;;;;;;;;;;;;;;37.05;24.87;99453.41;5091252;28;19935;-42
2023/06/02 07:12:57;;;;;;;;;;;;;;;37.51;24.43;99461.13;5091521;28;19916;-42
2023/06/02 07:15:22;;;;;;;;;;;;;;;37.92;24.15;99450.47;5090140;28;20025;-41
2023/06/02 07:17:48;;;;;;;;;;;;;;;36.56;24.10;99463.81;5091650;28;19912;-43
2023/06/02 07:20:13;;;;;;;;;;;;;;;36.57;23.92;99465.41;5091438;28;20300;-41
2023/06/02 07:22:39;;;;;;;;;;;;;;;36.12;24.58;99461.88;5091243;28;19918;-42
2023/06/02 07:25:05;;;;;;;;;;;;;;;35.94;25.34;99457.00;5090900;28;20347;-42
2023/06/02 07:27:31;;;;;;;;;;;;;;;34.98;25.71;99459.47;5091442;28;19923;-41
2023/06/02 07:29:56;;;;;;;;;;;;;;;34.75;27.00;99448.47;5090934;28;19939;-41
2023/06/02 07:32:21;;;;;;;;;;;;;;;35.93;25.87;99446.28;5091269;28;20033;-41
2023/06/02 07:34:47;;;;;;;;;;;;;;;36.60;24.28;99456.34;5090117;28;20363;-42
2023/06/02 07:37:12;;;;;;;;;;;;;;;37.01;24.29;99447.84;5091369;28;19959;-41
2023/06/02 07:39:37;;;;;;;;;;;;;;;37.47;23.59;99451.97;5090791;28;19989;-41
2023/06/02 07:42:02;;;;;;;;;;;;;;;37.78;22.78;99447.72;5090111;28;19919;-42
2023/06/02 07:44:28;;;;;;;;;;;;;;;37.52;23.78;99449.63;5092586;28;19999;-41
2023/06/02 07:46:53;;;;;;;;;;;;;;;37.70;23.67;99449.69;5096112;28;20047;-41
2023/06/02 07:49:19;;;;;;;;;;;;;;;38.13;23.07;99448.94;5096356;28;20035;-42
2023/06/02 07:51:44;;;;;;;;;;;;;;;38.35;23.32;99444.16;5096338;28;20403;-42
2023/06/02 07:54:09;;;;;;;;;;;;;;;37.62;23.79;99442.53;5096514;28;20016;-45
2023/06/02 07:56:35;;;;;;;;;;;;;;;37.02;23.84;99443.91;5096585;28;19919;-41
2023/06/02 07:59:00;;;;;;;;;;;;;;;37.93;23.37;99449.31;5097937;28;19912;-42
2023/06/02 08:01:26;;;;;;;;;;;;;;;36.93;24.21;99447.03;5097531;28;20010;-43
2023/06/02 08:03:51;;;;;;;;;;;;;;;37.28;23.33;99445.63;5098246;28;19912;-42
2023/06/02 08:06:16;;;;;;;;;;;;;;;37.23;23.24;99445.97;5098045;28;20363;-42
2023/06/02 08:08:44;;;;;;;;;;;;;;;37.26;23.40;99445.22;5098174;28;19912;-40
2023/06/02 08:11:10;;;;;;;;;;;;;;;36.88;24.04;99444.63;5097253;28;19912;-43
2023/06/02 08:13:35;;;;;;;;;;;;;;;35.69;24.67;99433.84;5097612;28;19918;-42
2023/06/02 08:16:00;;;;;;;;;;;;;;;35.33;24.75;99431.47;5097676;28;20341;-41
2023/06/02 08:18:26;;;;;;;;;;;;;;;34.70;26.30;99421.19;5097811;28;20019;-41
2023/06/02 08:20:51;;;;;;;;;;;;;;;34.09;26.85;99427.34;5097137;28;19923;-40
2023/06/02 08:23:17;;;;;;;;;;;;;;;34.43;26.54;99416.44;5096848;28;19920;-41
2023/06/02 08:25:43;;;;;;;;;;;;;;;34.69;27.20;99420.41;5097173;28;20003;-42
2023/06/02 08:28:09;;;;;;;;;;;;;;;34.67;25.34;99414.44;5094966;28;20332;-41
2023/06/02 08:30:35;;;;;;;;;;;;;;;34.79;25.89;99416.97;5094491;28;20333;-41
2023/06/02 08:33:02;;;;;;;;;;;;;;;33.72;27.58;99416.09;5094859;28;19916;-42
2023/06/02 08:35:28;;;;;;;;;;;;;;;34.23;27.19;99417.72;5095129;28;19920;-42
2023/06/02 08:37:55;;;;;;;;;;;;;;;34.02;27.83;99412.63;5094837;28;19912;-41
2023/06/02 08:40:23;;;;;;;;;;;;;;;34.79;27.21;99410.66;5094846;28;19973;-41
2023/06/02 08:42:49;;;;;;;;;;;;;;;33.38;26.91;99413.09;5095788;28;19916;-41
2023/06/02 08:45:20;;;;;;;;;;;;;;;32.77;28.42;99411.00;5096601;28;20303;-41
2023/06/02 08:47:47;;;;;;;;;;;;;;;32.33;29.70;99417.50;5096481;28;19912;-40
2023/06/02 08:50:12;;;;;;;;;;;;;;;33.23;28.27;99398.22;5097261;28;19919;-42
2023/06/02 08:52:42;;;;;;;;;;;;;;;33.62;27.79;99403.66;5096464;28;19915;-41
2023/06/02 08:55:07;;;;;;;;;;;;;;;33.80;27.54;99401.25;5095337;28;19919;-44
2023/06/02 08:57:33;;;;;;;;;;;;;;;33.45;27.37;99399.44;5091534;28;20003;-40
2023/06/02 08:59:58;;;;;;;;;;;;;;;32.09;28.39;99393.75;5094194;28;19920;-41
2023/06/02 09:02:23;;;;;;;;;;;;;;;32.26;28.04;99387.84;5094091;28;19912;-42
2023/06/02 09:04:49;;;;;;;;;;;;;;;32.00;27.57;99391.13;5093722;28;19944;-41
2023/06/02 09:07:20;;;;;;;;;;;;;;;32.20;27.36;99383.78;5093160;28;19911;-43
2023/06/02 09:09:46;;;;;;;;;;;;;;;32.28;27.34;99374.53;5092680;28;19985;-40
2023/06/02 09:12:13;;;;;;;;;;;;;;;32.26;28.74;99379.59;5092173;28;19911;-40
2023/06/02 09:14:39;;;;;;;;;;;;;;;30.93;30.00;99373.41;5091399;28;20384;-41
2023/06/02 09:17:37;;;;;;;;;;;;;;;31.31;29.66;99376.78;5091893;28;19931;-40
2023/06/02 09:20:11;;;;;;;;;;;;;;;31.49;28.99;99374.53;5078821;28;19955;-41
2023/06/02 09:22:56;;;;;;;;;;;;;;;30.66;27.85;99371.41;5091527;28;19947;-42
2023/06/02 09:25:26;;;;;;;;;;;;;;;31.02;29.16;99358.72;5090926;28;20003;-42
2023/06/02 09:27:52;;;;;;;;;;;;;;;31.56;29.36;99370.00;5091057;28;19912;-42
2023/06/02 09:30:17;;;;;;;;;;;;;;;32.28;29.06;99371.78;5092613;28;20027;-43
2023/06/02 09:32:51;;;;;;;;;;;;;;;32.31;27.42;99370.25;5092105;28;19997;-42
2023/06/02 09:35:31;;;;;;;;;;;;;;;31.88;27.63;99363.72;5092614;28;19969;-44
2023/06/02 09:37:57;;;;;;;;;;;;;;;31.56;28.44;99360.97;5092920;28;19916;-42
2023/06/02 09:40:27;;;;;;;;;;;;;;;30.39;29.63;99352.59;5092856;28;20041;-40
2023/06/02 09:42:52;;;;;;;;;;;;;;;30.43;29.47;99357.38;5092886;28;20461;-42
2023/06/02 09:45:18;;;;;;;;;;;;;;;30.69;29.90;99351.47;5092838;28;19923;-41
2023/06/02 09:47:43;;;;;;;;;;;;;;;31.04;30.13;99357.22;5093044;28;20271;-41
2023/06/02 09:50:09;;;;;;;;;;;;;;;31.52;29.81;99357.34;5092570;28;19920;-41
2023/06/02 09:52:35;;;;;;;;;;;;;;;31.78;29.43;99354.06;5092686;28;20279;-42
2023/06/02 09:55:00;;;;;;;;;;;;;;;31.49;28.76;99347.03;5092200;28;19912;-42
2023/06/02 09:57:25;;;;;;;;;;;;;;;31.46;27.12;99344.97;5092505;28;19995;-41
2023/06/02 09:59:51;;;;;;;;;;;;;;;30.21;29.45;99345.72;5092165;28;19912;-41
2023/06/02 10:02:17;;;;;;;;;;;;;;;29.51;31.24;99341.09;5092139;28;20019;-43
2023/06/02 10:04:42;;;;;;;;;;;;;;;29.31;32.39;99326.31;5091803;28;19912;-42
2023/06/02 10:07:34;;;;;;;;;;;;;;;29.90;30.72;99330.66;5092243;28;19916;-39
2023/06/02 10:10:05;;;;;;;;;;;;;;;30.56;29.90;99326.81;5092122;28;19996;-43
2023/06/02 10:13:02;;;;;;;;;;;;;;;30.39;28.65;99327.09;5092161;28;19969;-43
2023/06/02 10:15:47;;;;;;;;;;;;;;;30.56;29.69;99326.03;5068584;28;19981;-42
2023/06/02 10:18:20;;;;;;;;;;;;;;;30.12;29.85;99323.09;5092177;28;19928;-40
2023/06/02 10:21:21;;;;;;;;;;;;;;;29.23;31.56;99317.06;5092012;28;19920;-42
2023/06/02 10:24:01;;;;;;;;;;;;;;;28.58;32.20;99313.16;5049099;28;20497;-40
2023/06/02 10:26:44;;;;;;;;;;;;;;;29.34;31.98;99302.91;5087187;28;19912;-40
2023/06/02 10:29:12;;;;;;;;;;;;;;;29.53;30.97;99305.94;5091608;28;20245;-41
2023/06/02 10:31:37;;;;;;;;;;;;;;;29.96;30.80;99304.59;5091235;28;19973;-41
2023/06/02 10:34:03;;;;;;;;;;;;;;;30.18;30.09;99305.25;5091140;28;19920;-41
2023/06/02 10:36:48;;;;;;;;;;;;;;;30.28;30.54;99312.22;5091344;28;19955;-42
2023/06/02 10:39:32;;;;;;;;;;;;;;;29.99;30.23;99303.91;5091606;28;19956;-42
2023/06/02 10:42:10;;;;;;;;;;;;;;;29.42;30.75;99316.53;5091544;28;19958;-41
2023/06/02 10:44:35;;;;;;;;;;;;;;;29.00;31.00;99296.66;5091708;28;19955;-41
2023/06/02 10:47:19;;;;;;;;;;;;;;;28.66;31.42;99304.84;5091539;28;19920;-40
2023/06/02 10:49:50;;;;;;;;;;;;;;;29.19;31.26;99294.22;5091562;28;19976;-42
2023/06/02 10:52:16;;;;;;;;;;;;;;;29.17;31.66;99287.50;5091273;28;19918;-42
2023/06/02 10:54:41;;;;;;;;;;;;;;;29.52;31.02;99281.59;5091046;28;19911;-41
2023/06/02 10:57:09;;;;;;;;;;;;;;;30.25;29.86;99280.75;5091078;28;19912;-42
2023/06/02 10:59:36;;;;;;;;;;;;;;;28.88;31.03;99296.59;5091166;28;19912;-42
2023/06/02 11:02:01;;;;;;;;;;;;;;;29.60;30.35;99275.19;5091238;28;19916;-41
2023/06/02 11:04:34;;;;;;;;;;;;;;;30.36;29.62;99272.88;5091178;28;19974;-41
2023/06/02 11:07:25;;;;;;;;;;;;;;;30.52;29.28;99279.25;5090842;28;19955;-42
2023/06/02 11:09:54;;;;;;;;;;;;;;;30.31;28.90;99273.91;5089770;28;19966;-42
2023/06/02 11:12:20;;;;;;;;;;;;;;;29.55;29.82;99261.72;5089552;28;20003;-42
2023/06/02 11:15:01;;;;;;;;;;;;;;;29.76;29.65;99275.38;5088433;28;20331;-41
2023/06/02 11:17:30;;;;;;;;;;;;;;;29.99;29.52;99270.22;5091027;28;19951;-41
2023/06/02 11:19:56;;;;;;;;;;;;;;;29.99;28.63;99268.25;5089175;28;19916;-42
2023/06/02 11:22:21;;;;;;;;;;;;;;;30.05;27.27;99266.06;5090700;28;19978;-41
2023/06/02 11:24:48;;;;;;;;;;;;;;;30.22;26.96;99265.00;5090691;28;19956;-42
2023/06/02 11:27:13;;;;;;;;;;;;;;;30.48;26.82;99259.16;5090370;28;19919;-42
2023/06/02 11:29:38;;;;;;;;;;;;;;;30.25;27.65;99247.03;5090654;28;19920;-41
2023/06/02 11:32:05;;;;;;;;;;;;;;;30.02;26.54;99253.88;5090830;28;19916;-41
2023/06/02 11:34:30;;;;;;;;;;;;;;;30.46;26.61;99264.16;5090963;28;19987;-37
2023/06/02 11:37:10;;;;;;;;;;;;;;;30.19;27.43;99254.72;5090125;28;20052;-42
2023/06/02 11:39:47;;;;;;;;;;;;;;;29.62;27.99;99251.00;5091034;28;20052;-43
2023/06/02 11:42:13;;;;;;;;;;;;;;;29.47;27.80;99249.72;5089874;28;19965;-35
2023/06/02 11:44:46;;;;;;;;;;;;;;;29.84;27.29;99238.78;5090840;28;19920;-37
2023/06/02 11:47:11;;;;;;;;;;;;;;;29.99;27.24;99249.06;5091011;28;19919;-37
2023/06/02 11:49:37;;;;;;;;;;;;;;;30.79;26.65;99246.66;5090851;28;20229;-36
2023/06/02 11:52:03;;;;;;;;;;;;;;;30.74;27.02;99253.19;5091071;28;19920;-36
2023/06/02 11:54:28;;;;;;;;;;;;;;;30.86;26.26;99243.28;5091294;28;19916;-35
2023/06/02 11:56:53;;;;;;;;;;;;;;;30.15;26.30;99245.59;5091122;28;19912;-37
2023/06/02 11:59:19;;;;;;;;;;;;;;;30.28;26.45;99260.09;5091392;28;20279;-35
2023/06/02 12:01:44;;;;;;;;;;;;;;;29.49;26.99;99246.66;5090725;28;19920;-36
2023/06/02 12:04:12;;;;;;;;;;;;;;;30.43;26.29;99239.38;5084201;28;20222;-36
2023/06/02 12:06:45;;;;;;;;;;;;;;;30.48;25.84;99247.34;5091387;28;19991;-35
2023/06/02 12:09:13;;;;;;;;;;;;;;;30.06;25.11;99256.69;5090755;28;20006;-37
2023/06/02 12:11:38;;;;;;;;;;;;;;;29.68;25.48;99235.13;5090948;28;19986;-36
2023/06/02 12:14:05;;;;;;;;;;;;;;;29.87;25.02;99229.06;5090972;28;20032;-37
2023/06/02 12:16:31;;;;;;;;;;;;;;;29.89;25.10;99227.59;5090989;28;19973;-36
2023/06/02 12:19:31;;;;;;;;;;;;;;;30.13;25.62;99234.97;5090879;28;20034;-35
2023/06/02 12:22:05;;;;;;;;;;;;;;;29.61;26.36;99231.00;5067827;28;19921;-41
2023/06/02 12:24:33;;;;;;;;;;;;;;;29.66;27.06;99224.47;5087228;28;19920;-43
2023/06/02 12:26:59;;;;;;;;;;;;;;;29.17;27.19;99219.03;5089917;28;19931;-40
2023/06/02 12:29:24;;;;;;;;;;;;;;;29.11;26.22;99206.63;5090054;28;20023;-41
2023/06/02 12:32:00;;;;;;;;;;;;;;;29.25;27.17;99212.63;5091105;28;20392;-42
2023/06/02 12:34:26;;;;;;;;;;;;;;;29.62;26.86;99207.13;5091939;28;20378;-42
2023/06/02 12:36:51;;;;;;;;;;;;;;;29.90;26.56;99200.97;5093401;28;19973;-42
2023/06/02 12:39:17;;;;;;;;;;;;;;;29.46;28.47;99201.56;5089594;28;20002;-40
2023/06/02 12:41:42;;;;;;;;;;;;;;;29.59;28.42;99216.06;5084922;28;19924;-41
2023/06/02 12:44:07;;;;;;;;;;;;;;;29.61;28.60;99206.34;5087863;28;19912;-41
2023/06/02 12:46:33;;;;;;;;;;;;;;;29.07;28.74;99201.03;5079531;28;19916;-36